createdAt,value
2019-04-11T07:06:35.691Z,9.70
2019-04-11T07:12:13.521Z,9.60
2019-04-11T07:15:00.272Z,9.90
2019-04-11T07:17:48.149Z,10.00
2019-04-11T07:20:36.325Z,10.00
2019-04-11T07:23:24.358Z,10.10
2019-04-11T07:26:00.206Z,10.10
2019-04-11T07:28:41.671Z,10.30
2019-04-11T07:31:30.283Z,10.40
2019-04-11T07:34:19.554Z,10.50
2019-04-11T07:37:06.837Z,10.40
2019-04-11T07:39:42.572Z,10.60
2019-04-11T07:42:28.036Z,11.00
2019-04-11T07:45:02.226Z,10.70
2019-04-11T07:50:36.991Z,11.10
2019-04-11T07:53:08.692Z,11.30
2019-04-11T07:55:40.318Z,11.00
2019-04-11T07:58:26.555Z,11.30
2019-04-11T08:01:12.975Z,11.50
2019-04-11T08:06:47.891Z,11.70
2019-04-11T08:09:29.082Z,11.60
2019-04-11T08:12:00.655Z,11.70
2019-04-11T08:17:36.670Z,11.80
2019-04-11T08:20:19.539Z,11.70
2019-04-11T08:22:51.601Z,11.50
2019-04-11T08:25:23.280Z,12.20
2019-04-11T08:28:00.598Z,11.90
2019-04-11T08:30:30.928Z,12.20
2019-04-11T08:33:07.460Z,12.20
2019-04-11T08:35:40.177Z,12.30
2019-04-11T08:38:18.360Z,11.90
2019-04-11T08:40:53.704Z,12.30
2019-04-11T08:43:28.937Z,12.60
2019-04-11T08:46:06.970Z,12.80
2019-04-11T08:48:45.666Z,12.90
2019-04-11T08:51:19.042Z,12.90
2019-04-11T08:54:07.292Z,12.40
2019-04-11T08:56:39.078Z,12.50
2019-04-11T08:59:37.785Z,12.70
2019-04-11T09:02:08.726Z,12.70
2019-04-11T09:05:03.977Z,12.40
2019-04-11T09:07:29.922Z,13.10
2019-04-11T09:10:17.959Z,13.20
2019-04-11T09:12:50.878Z,13.20
2019-04-11T09:15:41.223Z,12.70
2019-04-11T09:18:13.734Z,12.80
2019-04-11T09:21:02.259Z,13.00
2019-04-11T09:23:33.480Z,12.40
2019-04-11T09:26:05.211Z,12.70
2019-04-11T09:28:37.681Z,13.20
2019-04-11T09:31:27.636Z,13.30
2019-04-11T09:34:05.796Z,13.20
2019-04-11T09:36:40.956Z,13.40
2019-04-11T09:39:19.256Z,13.20
2019-04-11T09:42:10.465Z,13.30
2019-04-11T09:44:49.140Z,13.20
2019-04-11T09:47:38.282Z,13.50
2019-04-11T09:50:10.085Z,13.50
2019-04-11T09:52:41.607Z,13.50
2019-04-11T09:55:17.078Z,13.50
2019-04-11T09:57:48.879Z,13.60
2019-04-11T10:00:26.874Z,13.80
2019-04-11T10:02:58.693Z,14.10
2019-04-11T10:05:30.257Z,14.10
2019-04-11T10:11:08.039Z,13.80
2019-04-11T10:13:42.817Z,14.00
2019-04-11T10:16:14.318Z,14.30
2019-04-11T10:18:45.844Z,14.80
2019-04-11T10:21:17.318Z,14.10
2019-04-11T10:24:05.187Z,14.20
2019-04-11T10:26:38.195Z,13.70
2019-04-11T10:29:11.381Z,14.10
2019-04-11T10:31:44.366Z,13.80
2019-04-11T10:34:33.509Z,13.90
2019-04-11T10:37:03.737Z,13.80
2019-04-11T10:39:35.647Z,14.00
2019-04-11T10:42:08.534Z,13.90
2019-04-11T10:44:46.363Z,13.90
2019-04-11T10:47:24.928Z,13.50
2019-04-11T10:50:13.219Z,13.20
2019-04-11T10:52:44.840Z,13.90
2019-04-11T10:55:22.381Z,13.80
2019-04-11T10:58:02.872Z,13.90
2019-04-11T11:00:40.136Z,13.50
2019-04-11T11:03:14.698Z,13.40
2019-04-11T11:05:51.776Z,13.60
2019-04-11T11:11:50.642Z,14.10
2019-04-11T11:14:39.918Z,13.60
2019-04-11T11:17:38.991Z,13.90
2019-04-11T11:20:17.967Z,14.50
2019-04-11T11:22:43.396Z,14.30
2019-04-11T11:25:24.668Z,14.20
2019-04-11T11:27:55.683Z,14.10
2019-04-11T11:30:27.508Z,14.10
2019-04-11T11:32:58.165Z,14.00
2019-04-11T11:35:47.781Z,14.00
2019-04-11T11:38:24.133Z,14.20
2019-04-11T11:41:12.352Z,14.00
2019-04-11T11:43:43.237Z,14.30
2019-04-11T11:46:14.855Z,14.40
2019-04-11T11:48:49.600Z,14.40
2019-04-11T11:51:29.217Z,13.70
2019-04-11T11:53:59.380Z,14.20
2019-04-11T11:56:30.233Z,13.90
2019-04-11T11:59:07.564Z,13.90
2019-04-11T12:01:43.232Z,13.90
2019-04-11T12:04:25.843Z,13.90
2019-04-11T12:07:01.824Z,14.00
2019-04-11T12:09:47.371Z,14.00
2019-04-11T12:12:27.952Z,14.00
2019-04-11T12:15:20.547Z,14.30
2019-04-11T12:17:59.635Z,14.60
2019-04-11T12:20:49.779Z,14.40
2019-04-11T12:23:48.611Z,14.30
2019-04-11T12:26:12.260Z,14.00
2019-04-11T12:28:52.323Z,13.80
2019-04-11T12:31:25.996Z,14.00
2019-04-11T12:36:54.776Z,14.00
2019-04-11T12:39:36.107Z,13.70
2019-04-11T12:42:07.622Z,14.40
2019-04-11T12:44:55.271Z,14.00
2019-04-11T12:47:26.916Z,13.90
2019-04-11T12:49:58.373Z,13.70
2019-04-11T12:52:38.909Z,14.00
2019-04-11T12:55:26.585Z,14.20
2019-04-11T12:58:01.153Z,14.00
2019-04-11T13:00:49.112Z,13.60
2019-04-11T13:03:32.257Z,13.90
2019-04-11T13:06:04.015Z,14.30
2019-04-11T13:08:50.591Z,14.10
2019-04-11T13:11:22.261Z,13.70
2019-04-11T13:14:12.141Z,13.60
2019-04-11T13:16:43.796Z,13.70
2019-04-11T13:19:31.605Z,13.60
2019-04-11T13:22:03.072Z,14.10
2019-04-11T13:24:34.593Z,14.50
2019-04-11T13:27:18.050Z,14.20
2019-04-11T13:29:55.744Z,14.00
2019-04-11T13:32:30.021Z,14.10
2019-04-11T13:35:07.656Z,13.80
2019-04-11T13:37:42.124Z,13.90
2019-04-11T13:40:22.451Z,14.10
2019-04-11T13:46:03.002Z,14.40
2019-04-11T13:48:50.492Z,14.30
2019-04-11T13:51:31.089Z,14.40
2019-04-11T13:54:18.964Z,14.60
2019-04-11T13:57:06.686Z,14.40
2019-04-11T13:59:38.150Z,14.20
2019-04-11T14:02:12.444Z,14.00
2019-04-11T14:04:46.803Z,14.20
2019-04-11T14:07:27.359Z,13.80
2019-04-11T14:10:01.361Z,13.70
2019-04-11T14:12:33.368Z,13.80
2019-04-11T14:15:10.526Z,14.00
2019-04-11T14:17:58.048Z,13.50
2019-04-11T14:20:32.442Z,13.10
2019-04-11T14:23:03.966Z,13.30
2019-04-11T14:25:42.778Z,13.30
2019-04-11T14:28:14.242Z,13.40
2019-04-11T14:31:01.934Z,13.40
2019-04-11T14:33:36.124Z,13.80
2019-04-11T14:36:32.873Z,13.70
2019-04-11T14:38:56.841Z,13.40
2019-04-11T14:41:34.129Z,13.30
2019-04-11T14:44:05.689Z,13.20
2019-04-11T14:49:40.590Z,13.10
2019-04-11T14:52:17.041Z,13.30
2019-04-11T14:54:48.887Z,13.30
2019-04-11T14:57:36.676Z,13.00
2019-04-11T15:00:16.832Z,12.70
2019-04-11T15:02:50.825Z,12.60
2019-04-11T15:05:22.289Z,12.80
2019-04-11T15:07:52.240Z,12.90
2019-04-11T15:13:36.169Z,13.00
2019-04-11T15:16:11.147Z,12.90
2019-04-11T15:18:43.104Z,12.80
2019-04-11T15:21:14.572Z,12.60
2019-04-11T15:23:44.524Z,12.90
2019-04-11T15:26:19.088Z,12.80
2019-04-11T15:28:50.605Z,12.50
2019-04-11T15:31:39.486Z,12.50
2019-04-11T15:34:26.389Z,12.70
2019-04-11T15:36:58.500Z,12.20
2019-04-11T15:39:46.433Z,12.30
2019-04-11T15:42:17.964Z,12.10
2019-04-11T15:45:05.831Z,12.10
2019-04-11T15:47:37.297Z,12.00
2019-04-11T15:50:18.780Z,11.80
2019-04-11T15:52:53.096Z,12.10
2019-04-11T15:55:37.792Z,11.90
2019-04-11T15:58:12.562Z,12.10
2019-04-11T16:00:44.742Z,12.00
2019-04-11T16:03:14.728Z,12.00
2019-04-11T16:05:52.285Z,11.60
2019-04-11T16:08:32.699Z,11.70
2019-04-11T16:11:12.394Z,11.80
2019-04-11T16:13:55.334Z,11.70
2019-04-11T16:16:26.835Z,11.60
2019-04-11T16:19:10.219Z,11.60
2019-04-11T16:21:56.624Z,11.30
2019-04-11T16:24:28.188Z,11.40
2019-04-11T16:27:02.428Z,11.40
2019-04-11T16:29:38.911Z,11.40
2019-04-11T16:32:10.473Z,11.30
2019-04-11T16:37:47.667Z,11.20
2019-04-11T16:40:26.098Z,10.90
2019-04-11T16:42:59.161Z,11.00
2019-04-11T16:45:42.656Z,11.00
2019-04-11T16:48:12.625Z,11.00
2019-04-11T16:50:42.581Z,10.90
2019-04-11T16:53:12.526Z,10.90
2019-04-11T16:55:43.450Z,10.60
2019-04-11T16:58:17.012Z,10.60
2019-04-11T17:00:45.219Z,10.50
2019-04-11T17:03:17.182Z,10.50
2019-04-11T17:05:48.280Z,10.50
2019-04-11T17:08:36.282Z,10.60
2019-04-11T17:11:13.609Z,10.60
2019-04-11T17:13:43.591Z,10.70
2019-04-11T17:16:14.428Z,10.60
2019-04-11T17:18:44.361Z,10.50
2019-04-11T17:21:14.235Z,10.50
2019-04-11T17:23:46.858Z,10.40
2019-04-11T17:26:15.664Z,10.40
2019-04-11T17:28:45.605Z,10.40
2019-04-11T17:31:15.528Z,10.40
2019-04-11T17:33:45.414Z,10.20
2019-04-11T17:36:15.425Z,10.20
2019-04-11T17:38:45.329Z,10.20
2019-04-11T17:41:15.271Z,10.10
2019-04-11T17:43:47.045Z,10.00
2019-04-11T17:46:17.855Z,9.90
2019-04-11T17:48:50.229Z,9.90
2019-04-11T17:51:19.370Z,9.80
2019-04-11T17:53:49.238Z,9.80
2019-04-11T17:56:19.170Z,9.70
2019-04-11T17:58:49.103Z,9.70
2019-04-11T18:01:19.596Z,9.50
2019-04-11T18:03:49.504Z,9.50
2019-04-11T18:06:19.370Z,9.30
2019-04-11T18:08:51.506Z,9.30
2019-04-11T18:11:20.846Z,9.40
2019-04-11T18:13:50.719Z,9.20
2019-04-11T18:16:20.648Z,9.10
2019-04-11T18:18:50.514Z,9.10
2019-04-11T18:21:21.038Z,9.10
2019-04-11T18:23:50.967Z,8.90
2019-04-11T18:26:21.370Z,8.90
2019-04-11T18:28:52.655Z,9.00
2019-04-11T18:31:24.915Z,9.10
2019-04-11T18:33:55.518Z,9.00
2019-04-11T18:36:26.735Z,8.90
2019-04-11T18:38:57.054Z,8.80
2019-04-11T18:41:27.120Z,8.70
2019-04-11T18:43:57.047Z,8.70
2019-04-11T18:46:28.619Z,8.60
2019-04-11T18:48:58.482Z,8.80
2019-04-11T18:51:30.497Z,8.60
2019-04-11T18:54:01.900Z,8.60
2019-04-11T18:56:37.841Z,8.50
2019-04-11T18:59:10.035Z,8.50
2019-04-11T19:01:40.620Z,8.60
2019-04-11T19:04:12.613Z,8.60
2019-04-11T19:06:44.342Z,8.70
2019-04-11T19:09:16.609Z,8.70
2019-04-11T19:11:47.509Z,8.50
2019-04-11T19:14:19.015Z,8.60
2019-04-11T19:16:50.287Z,8.50
2019-04-11T19:19:21.260Z,8.50
2019-04-11T19:21:52.423Z,8.50
2019-04-11T19:24:34.829Z,8.30
2019-04-11T19:26:56.282Z,8.40
2019-04-11T19:29:27.329Z,8.40
2019-04-11T19:31:58.606Z,8.40
2019-04-11T19:34:29.716Z,8.30
2019-04-11T19:37:03.649Z,8.40
2019-04-11T19:39:35.568Z,8.40
2019-04-11T19:42:09.063Z,8.10
2019-04-11T19:44:39.551Z,8.10
2019-04-11T19:47:10.682Z,8.10
2019-04-11T19:49:41.734Z,8.00
2019-04-11T19:52:12.639Z,8.00
2019-04-11T19:54:43.659Z,7.90
2019-04-11T19:57:15.061Z,7.80
2019-04-11T19:59:50.736Z,7.70
2019-04-11T20:02:23.173Z,7.80
2019-04-11T20:04:52.842Z,7.80
2019-04-11T20:07:22.740Z,7.80
2019-04-11T20:09:58.566Z,7.70
